Time;durP1;ratioP1;P1;durP2;ratioP2;P2;SDS_P1;SDS_P2;PMS_P1;PMS_P2;Temp;Humidity;BMP_temperature;BMP_pressure;BME280_temperature;BME280_humidity;BME280_pressure;Samples;Min_cycle;Max_cycle;Signal;HPM_P1;HPM_P2
2023/07/12 00:00:21;;;;;;;5.37;3.47;;;;;;;;;;5030213;28;20472;-81
2023/07/12 00:02:48;;;;;;;8.13;2.97;;;;;;;;;;5034817;28;20464;-80
2023/07/12 00:05:16;;;;;;;5.73;3.40;;;;;;;;;;5031696;28;20473;-80
2023/07/12 00:07:46;;;;;;;12.80;5.10;;;;;;;;;;5036520;28;20496;-80
2023/07/12 00:10:17;;;;;;;11.87;4.97;;;;;;;;;;5037420;28;20518;-83
2023/07/12 00:12:44;;;;;;;14.40;6.93;;;;;;;;;;5041854;28;20943;-80
2023/07/12 00:15:11;;;;;;;18.43;8.00;;;;;;;;;;5035511;28;20465;-80
2023/07/12 00:17:38;;;;;;;11.50;6.67;;;;;;;;;;5034973;28;20516;-79
2023/07/12 00:20:05;;;;;;;9.63;6.43;;;;;;;;;;5031602;28;20480;-79
2023/07/12 00:22:33;;;;;;;12.30;7.27;;;;;;;;;;5024462;28;20460;-79
2023/07/12 00:24:59;;;;;;;7.30;5.43;;;;;;;;;;5019544;28;20445;-79
2023/07/12 00:27:25;;;;;;;10.07;6.40;;;;;;;;;;5030856;28;20472;-79
2023/07/12 00:29:52;;;;;;;10.77;4.70;;;;;;;;;;5027645;28;20449;-79
2023/07/12 00:32:18;;;;;;;7.57;4.60;;;;;;;;;;5038051;28;20946;-78
2023/07/12 00:34:44;;;;;;;7.67;3.93;;;;;;;;;;5025322;28;20958;-78
2023/07/12 00:37:14;;;;;;;3.50;2.70;;;;;;;;;;5034304;28;20448;-78
2023/07/12 00:39:43;;;;;;;4.13;2.20;;;;;;;;;;5024834;28;20863;-82
2023/07/12 00:42:17;;;;;;;3.37;2.50;;;;;;;;;;5048768;28;20845;-79
2023/07/12 00:44:46;;;;;;;2.90;2.47;;;;;;;;;;5055549;28;20452;-82
2023/07/12 00:47:14;;;;;;;2.73;2.00;;;;;;;;;;5031481;28;20449;-82
2023/07/12 00:49:40;;;;;;;6.00;2.67;;;;;;;;;;5037369;28;20476;-81
2023/07/12 00:52:12;;;;;;;8.20;2.57;;;;;;;;;;5036535;28;20449;-81
2023/07/12 00:54:50;;;;;;;7.13;2.60;;;;;;;;;;5033915;28;20826;-81
2023/07/12 00:57:16;;;;;;;5.63;2.00;;;;;;;;;;5045783;28;20463;-79
2023/07/12 00:59:43;;;;;;;12.10;2.30;;;;;;;;;;5047989;28;20468;-79
2023/07/12 01:02:11;;;;;;;2.70;2.03;;;;;;;;;;5036925;28;20449;-80
2023/07/12 01:04:38;;;;;;;4.20;2.27;;;;;;;;;;5036460;28;20452;-79
2023/07/12 01:07:05;;;;;;;4.50;2.27;;;;;;;;;;5028801;28;20474;-81
2023/07/12 01:09:33;;;;;;;2.10;1.40;;;;;;;;;;5031934;28;20495;-81
2023/07/12 01:12:03;;;;;;;3.57;1.17;;;;;;;;;;5031541;28;20519;-80
2023/07/12 01:14:29;;;;;;;1.97;1.60;;;;;;;;;;5026524;28;20985;-80
2023/07/12 01:16:58;;;;;;;1.50;1.40;;;;;;;;;;5034337;28;20479;-79
2023/07/12 01:19:24;;;;;;;3.33;1.70;;;;;;;;;;5026708;28;20504;-81
2023/07/12 01:21:53;;;;;;;1.83;1.47;;;;;;;;;;5030380;28;20919;-80
2023/07/12 01:24:20;;;;;;;1.23;1.13;;;;;;;;;;5024451;28;20456;-81
2023/07/12 01:26:49;;;;;;;2.97;1.47;;;;;;;;;;5036282;28;20903;-80
2023/07/12 01:29:16;;;;;;;1.10;1.00;;;;;;;;;;5021717;28;20492;-81
2023/07/12 01:31:43;;;;;;;2.40;1.70;;;;;;;;;;5034084;28;20465;-82
2023/07/12 01:34:10;;;;;;;2.73;1.50;;;;;;;;;;5039060;28;20830;-80
2023/07/12 01:36:37;;;;;;;2.53;1.70;;;;;;;;;;5033980;28;20473;-80
2023/07/12 01:39:05;;;;;;;2.03;1.70;;;;;;;;;;5032633;28;20468;-80
2023/07/12 01:41:32;;;;;;;6.73;2.07;;;;;;;;;;5035042;28;20987;-80
2023/07/12 01:43:59;;;;;;;2.80;2.50;;;;;;;;;;5037999;28;20456;-82
2023/07/12 01:46:27;;;;;;;2.83;2.00;;;;;;;;;;5028617;28;20492;-80
2023/07/12 01:48:53;;;;;;;3.00;2.40;;;;;;;;;;5033424;28;20491;-80
2023/07/12 01:51:20;;;;;;;3.40;2.10;;;;;;;;;;5032794;28;20471;-80
2023/07/12 01:53:47;;;;;;;3.43;2.13;;;;;;;;;;5038262;28;20475;-82
2023/07/12 01:56:16;;;;;;;3.20;2.40;;;;;;;;;;5028846;28;21018;-80
2023/07/12 01:58:43;;;;;;;3.77;3.00;;;;;;;;;;5022057;28;20465;-80
2023/07/12 02:01:09;;;;;;;4.80;2.80;;;;;;;;;;5036058;28;20464;-81
2023/07/12 02:03:35;;;;;;;3.07;2.23;;;;;;;;;;5030032;28;20524;-81
2023/07/12 02:06:02;;;;;;;5.33;2.97;;;;;;;;;;5034865;28;20473;-79
2023/07/12 02:08:28;;;;;;;2.83;2.47;;;;;;;;;;5034420;28;20492;-81
2023/07/12 02:10:55;;;;;;;4.80;2.80;;;;;;;;;;5034479;28;20465;-79
2023/07/12 02:13:23;;;;;;;3.60;2.57;;;;;;;;;;5032369;28;20838;-82
2023/07/12 02:15:50;;;;;;;2.37;2.17;;;;;;;;;;5029382;28;20473;-81
2023/07/12 02:18:17;;;;;;;3.30;2.93;;;;;;;;;;5033182;28;20457;-80
2023/07/12 02:20:44;;;;;;;2.80;2.60;;;;;;;;;;5024521;28;20987;-80
2023/07/12 02:23:10;;;;;;;4.43;2.70;;;;;;;;;;5032658;28;20464;-80
2023/07/12 02:25:36;;;;;;;4.73;2.90;;;;;;;;;;5020634;28;20465;-80
2023/07/12 02:28:03;;;;;;;2.60;2.40;;;;;;;;;;5026971;28;20476;-82
2023/07/12 02:30:31;;;;;;;4.97;2.83;;;;;;;;;;5030187;28;20851;-82
2023/07/12 02:32:57;;;;;;;3.07;2.63;;;;;;;;;;5030158;28;20822;-80
2023/07/12 02:35:27;;;;;;;4.00;3.37;;;;;;;;;;5035828;28;20472;-80
2023/07/12 02:37:54;;;;;;;3.53;2.43;;;;;;;;;;5024808;28;20501;-81
2023/07/12 02:40:21;;;;;;;3.37;2.90;;;;;;;;;;5020045;28;20476;-80
2023/07/12 02:42:47;;;;;;;5.10;3.10;;;;;;;;;;5032947;28;20518;-80
2023/07/12 02:45:14;;;;;;;3.80;3.40;;;;;;;;;;5031995;28;20452;-80
2023/07/12 02:47:41;;;;;;;4.97;2.80;;;;;;;;;;5035452;28;20475;-80
2023/07/12 02:50:08;;;;;;;3.60;3.30;;;;;;;;;;5030344;28;20464;-80
2023/07/12 02:52:34;;;;;;;4.70;3.30;;;;;;;;;;5029956;28;20447;-81
2023/07/12 02:55:01;;;;;;;3.40;2.77;;;;;;;;;;5016337;28;21298;-80
2023/07/12 02:57:27;;;;;;;5.77;4.80;;;;;;;;;;5034368;28;20488;-80
2023/07/12 02:59:54;;;;;;;5.97;3.37;;;;;;;;;;5028422;28;20450;-80
2023/07/12 03:02:20;;;;;;;5.13;2.80;;;;;;;;;;5020802;28;20444;-80
2023/07/12 03:04:48;;;;;;;9.23;4.10;;;;;;;;;;5032883;28;20969;-80
2023/07/12 03:07:14;;;;;;;4.90;3.60;;;;;;;;;;5025400;28;20456;-79
2023/07/12 03:09:41;;;;;;;4.27;2.83;;;;;;;;;;5021654;28;20476;-80
2023/07/12 03:12:07;;;;;;;3.93;3.27;;;;;;;;;;5036930;28;20453;-81
2023/07/12 03:14:34;;;;;;;5.87;3.63;;;;;;;;;;5029781;28;20475;-80
2023/07/12 03:17:00;;;;;;;3.70;3.30;;;;;;;;;;5031999;28;20468;-82
2023/07/12 03:19:27;;;;;;;4.90;3.83;;;;;;;;;;5027023;28;20445;-80
2023/07/12 03:21:55;;;;;;;4.67;3.37;;;;;;;;;;5025366;28;20464;-81
2023/07/12 03:24:22;;;;;;;7.33;3.17;;;;;;;;;;5034349;28;20460;-81
2023/07/12 03:26:48;;;;;;;6.50;3.07;;;;;;;;;;5026365;28;20991;-80
2023/07/12 03:29:14;;;;;;;3.27;2.53;;;;;;;;;;5032873;28;20489;-80
2023/07/12 03:31:41;;;;;;;3.00;2.80;;;;;;;;;;5021651;28;20994;-80
2023/07/12 03:34:07;;;;;;;4.80;3.07;;;;;;;;;;5025767;28;20452;-80
2023/07/12 03:36:34;;;;;;;4.43;3.03;;;;;;;;;;5016500;28;20472;-81
2023/07/12 03:39:02;;;;;;;3.63;3.27;;;;;;;;;;5024259;28;20465;-81
2023/07/12 03:41:28;;;;;;;3.33;2.93;;;;;;;;;;5031783;28;20989;-81
2023/07/12 03:43:55;;;;;;;4.27;3.83;;;;;;;;;;5036516;28;20838;-81
2023/07/12 03:46:22;;;;;;;3.37;3.07;;;;;;;;;;5034835;28;21013;-80
2023/07/12 03:48:48;;;;;;;4.30;3.37;;;;;;;;;;5032583;28;20491;-80
2023/07/12 03:51:17;;;;;;;5.57;3.90;;;;;;;;;;5017999;28;20488;-80
2023/07/12 03:53:44;;;;;;;4.30;3.90;;;;;;;;;;5027602;28;20511;-80
2023/07/12 03:56:14;;;;;;;5.17;4.43;;;;;;;;;;5047872;28;20992;-80
2023/07/12 03:58:40;;;;;;;4.57;4.10;;;;;;;;;;5046931;28;20471;-81
2023/07/12 04:01:08;;;;;;;5.80;4.53;;;;;;;;;;5056000;28;20483;-80
2023/07/12 04:03:35;;;;;;;5.20;4.70;;;;;;;;;;5058650;28;20450;-80
2023/07/12 04:06:03;;;;;;;6.10;5.50;;;;;;;;;;5045648;28;20472;-80
2023/07/12 04:08:29;;;;;;;7.20;5.43;;;;;;;;;;5030050;28;20970;-81
2023/07/12 04:10:56;;;;;;;5.73;5.23;;;;;;;;;;5029806;28;20460;-80
2023/07/12 04:13:25;;;;;;;6.13;5.50;;;;;;;;;;5036693;28;20946;-81
2023/07/12 04:15:52;;;;;;;6.13;5.00;;;;;;;;;;5027634;28;20480;-80
2023/07/12 04:18:19;;;;;;;5.20;4.70;;;;;;;;;;5032962;28;20518;-80
2023/07/12 04:20:46;;;;;;;6.80;5.43;;;;;;;;;;5038155;28;20830;-81
2023/07/12 04:23:12;;;;;;;6.97;5.73;;;;;;;;;;5038363;28;20448;-80
2023/07/12 04:25:39;;;;;;;8.50;6.80;;;;;;;;;;5036656;28;20465;-81
2023/07/12 04:28:05;;;;;;;5.73;5.23;;;;;;;;;;5035423;28;20483;-80
2023/07/12 04:30:33;;;;;;;5.57;4.93;;;;;;;;;;5033090;28;20464;-80
2023/07/12 04:32:59;;;;;;;10.60;6.20;;;;;;;;;;5031393;28;20454;-80
2023/07/12 04:35:26;;;;;;;6.90;5.77;;;;;;;;;;5033469;28;20473;-81
2023/07/12 04:37:53;;;;;;;7.47;5.50;;;;;;;;;;5034689;28;20560;-81
2023/07/12 04:40:20;;;;;;;5.40;5.00;;;;;;;;;;5030373;28;20464;-81
2023/07/12 04:42:46;;;;;;;10.53;5.90;;;;;;;;;;5029146;28;20540;-80
2023/07/12 04:45:13;;;;;;;8.50;5.27;;;;;;;;;;5032175;28;20479;-82
2023/07/12 04:47:41;;;;;;;7.07;5.27;;;;;;;;;;5028782;28;20469;-80
2023/07/12 04:50:08;;;;;;;6.30;5.70;;;;;;;;;;5023849;28;20473;-81
2023/07/12 04:52:34;;;;;;;5.97;5.10;;;;;;;;;;5034900;28;20453;-81
2023/07/12 04:55:03;;;;;;;7.77;5.87;;;;;;;;;;5022358;28;22557;-81
2023/07/12 04:57:30;;;;;;;7.33;6.17;;;;;;;;;;5027172;28;20470;-80
2023/07/12 04:59:57;;;;;;;6.90;6.20;;;;;;;;;;5031835;28;20441;-81
2023/07/12 05:02:23;;;;;;;9.17;6.10;;;;;;;;;;5035949;28;20434;-82
2023/07/12 05:04:51;;;;;;;9.90;5.87;;;;;;;;;;5023281;28;20459;-79
2023/07/12 05:07:17;;;;;;;9.03;6.37;;;;;;;;;;5036731;28;20444;-81
2023/07/12 05:09:44;;;;;;;8.00;5.40;;;;;;;;;;5032858;28;20491;-82
2023/07/12 05:12:11;;;;;;;7.97;4.70;;;;;;;;;;5024405;28;20940;-82
2023/07/12 05:14:37;;;;;;;7.10;5.27;;;;;;;;;;5032890;28;20467;-80
2023/07/12 05:17:04;;;;;;;6.57;5.13;;;;;;;;;;5037285;28;20473;-82
2023/07/12 05:19:30;;;;;;;6.10;5.50;;;;;;;;;;5038211;28;20491;-81
2023/07/12 05:21:58;;;;;;;13.60;5.33;;;;;;;;;;5029613;28;20911;-82
2023/07/12 05:24:26;;;;;;;6.43;5.10;;;;;;;;;;5035197;28;20452;-82
2023/07/12 05:26:52;;;;;;;10.20;5.30;;;;;;;;;;5027997;28;20469;-80
2023/07/12 05:29:19;;;;;;;8.13;5.07;;;;;;;;;;5035300;28;20493;-81
2023/07/12 05:31:45;;;;;;;4.90;4.37;;;;;;;;;;5035833;28;20468;-81
2023/07/12 05:34:13;;;;;;;7.03;5.13;;;;;;;;;;5045503;28;20448;-81
2023/07/12 05:36:41;;;;;;;7.43;4.67;;;;;;;;;;5055428;28;20909;-82
2023/07/12 05:39:09;;;;;;;7.40;5.20;;;;;;;;;;5050536;28;20470;-79
2023/07/12 05:41:35;;;;;;;6.90;5.50;;;;;;;;;;5051983;28;20477;-81
2023/07/12 05:44:02;;;;;;;9.73;5.80;;;;;;;;;;5049111;28;20467;-83
2023/07/12 05:46:28;;;;;;;7.43;5.40;;;;;;;;;;5053405;28;20480;-81
2023/07/12 05:48:58;;;;;;;6.60;5.37;;;;;;;;;;5056381;28;20472;-82
2023/07/12 05:51:24;;;;;;;9.60;6.03;;;;;;;;;;5050448;28;20479;-82
2023/07/12 05:53:51;;;;;;;7.40;5.77;;;;;;;;;;5057718;28;20472;-81
2023/07/12 05:56:18;;;;;;;6.83;5.10;;;;;;;;;;5040360;28;20472;-82
2023/07/12 05:58:45;;;;;;;6.03;5.50;;;;;;;;;;5055803;28;20463;-82
2023/07/12 06:01:11;;;;;;;8.43;5.67;;;;;;;;;;5047085;28;20487;-82
2023/07/12 06:03:38;;;;;;;7.23;6.17;;;;;;;;;;5055723;28;20440;-83
2023/07/12 06:06:09;;;;;;;6.80;5.37;;;;;;;;;;5054106;28;20468;-82
2023/07/12 06:08:36;;;;;;;7.87;6.13;;;;;;;;;;5047684;28;20469;-81
2023/07/12 06:11:02;;;;;;;8.40;6.53;;;;;;;;;;5048298;28;20473;-82
2023/07/12 06:13:30;;;;;;;10.90;5.70;;;;;;;;;;5054903;28;20454;-83
2023/07/12 06:15:57;;;;;;;8.90;5.10;;;;;;;;;;5056147;28;20931;-81
2023/07/12 06:18:24;;;;;;;7.03;6.20;;;;;;;;;;5044465;28;20460;-81
2023/07/12 06:20:55;;;;;;;6.80;5.67;;;;;;;;;;5049433;28;20595;-82
2023/07/12 06:23:21;;;;;;;8.83;5.50;;;;;;;;;;5053544;28;20442;-82
2023/07/12 06:25:47;;;;;;;7.90;4.83;;;;;;;;;;5049232;28;20472;-82
2023/07/12 06:28:14;;;;;;;8.80;6.00;;;;;;;;;;5052152;28;20468;-81
2023/07/12 06:30:42;;;;;;;6.63;5.80;;;;;;;;;;5051732;28;20539;-81
2023/07/12 06:33:09;;;;;;;7.50;6.20;;;;;;;;;;5050871;28;20448;-82
2023/07/12 06:35:35;;;;;;;6.87;5.90;;;;;;;;;;5042298;28;21015;-82
2023/07/12 06:38:02;;;;;;;9.50;6.00;;;;;;;;;;5056298;28;20468;-82
2023/07/12 06:40:29;;;;;;;7.13;5.03;;;;;;;;;;5045440;28;20472;-82
2023/07/12 06:42:55;;;;;;;7.17;5.17;;;;;;;;;;5058936;28;20440;-82
2023/07/12 06:45:22;;;;;;;8.00;6.10;;;;;;;;;;5049436;28;20994;-82
2023/07/12 06:47:49;;;;;;;7.40;5.60;;;;;;;;;;5056989;28;20459;-81
2023/07/12 06:50:16;;;;;;;9.07;5.40;;;;;;;;;;5053691;28;20521;-82
2023/07/12 06:52:43;;;;;;;7.73;5.97;;;;;;;;;;5053715;28;20809;-82
2023/07/12 06:55:10;;;;;;;6.10;5.30;;;;;;;;;;5048770;28;20468;-82
2023/07/12 06:57:36;;;;;;;8.80;5.27;;;;;;;;;;5054858;28;21040;-82
2023/07/12 07:00:05;;;;;;;6.57;5.23;;;;;;;;;;5054392;28;20467;-82
2023/07/12 07:02:32;;;;;;;9.30;5.03;;;;;;;;;;5044865;28;20444;-82
2023/07/12 07:05:00;;;;;;;6.83;4.97;;;;;;;;;;5054829;28;20459;-82
2023/07/12 07:07:26;;;;;;;10.70;5.50;;;;;;;;;;5047120;28;20464;-82
2023/07/12 07:09:53;;;;;;;6.83;4.43;;;;;;;;;;5054560;28;20483;-81
2023/07/12 07:12:19;;;;;;;6.07;4.17;;;;;;;;;;5057508;28;20443;-82
2023/07/12 07:14:46;;;;;;;6.23;4.00;;;;;;;;;;5053433;28;20460;-82
2023/07/12 07:17:13;;;;;;;7.10;4.47;;;;;;;;;;5048620;28;20467;-81
2023/07/12 07:19:40;;;;;;;8.17;4.90;;;;;;;;;;5056929;28;20440;-81
2023/07/12 07:22:08;;;;;;;11.53;5.23;;;;;;;;;;5040551;28;20874;-82
2023/07/12 07:24:35;;;;;;;8.70;5.53;;;;;;;;;;5042770;28;20459;-81
2023/07/12 07:27:01;;;;;;;6.10;5.50;;;;;;;;;;5034716;28;20483;-81
2023/07/12 07:29:28;;;;;;;8.83;5.63;;;;;;;;;;5026401;28;20449;-82
2023/07/12 07:31:54;;;;;;;11.13;5.37;;;;;;;;;;5031570;28;20520;-81
2023/07/12 07:34:21;;;;;;;8.50;5.40;;;;;;;;;;5018720;28;20808;-82
2023/07/12 07:36:47;;;;;;;5.90;4.90;;;;;;;;;;5031245;28;20473;-81
2023/07/12 07:39:15;;;;;;;8.40;4.53;;;;;;;;;;5031259;28;20468;-81
2023/07/12 07:41:41;;;;;;;7.13;5.77;;;;;;;;;;5025006;28;20469;-81
2023/07/12 07:44:07;;;;;;;11.57;6.70;;;;;;;;;;5031943;28;20449;-82
2023/07/12 07:46:34;;;;;;;8.67;5.93;;;;;;;;;;5032047;28;20457;-81
2023/07/12 07:49:00;;;;;;;8.43;5.60;;;;;;;;;;5029074;28;20481;-81
2023/07/12 07:51:27;;;;;;;9.63;5.80;;;;;;;;;;5027200;28;20485;-80
2023/07/12 07:53:53;;;;;;;12.80;6.10;;;;;;;;;;5031735;28;20441;-81
2023/07/12 07:56:21;;;;;;;10.47;5.60;;;;;;;;;;5030071;28;20472;-82
2023/07/12 07:58:47;;;;;;;8.03;5.70;;;;;;;;;;5030680;28;20471;-81
2023/07/12 08:01:14;;;;;;;9.43;5.43;;;;;;;;;;5029293;28;20460;-81
2023/07/12 08:03:40;;;;;;;7.17;5.27;;;;;;;;;;5029156;28;20452;-81
2023/07/12 08:06:07;;;;;;;6.20;5.10;;;;;;;;;;5030990;28;20468;-81
2023/07/12 08:08:34;;;;;;;8.93;5.47;;;;;;;;;;5023728;28;20471;-81
2023/07/12 08:11:01;;;;;;;7.50;5.47;;;;;;;;;;5034135;28;20472;-81
2023/07/12 08:13:29;;;;;;;12.43;5.97;;;;;;;;;;5033951;28;20445;-83
2023/07/12 08:15:57;;;;;;;8.83;5.33;;;;;;;;;;5035055;28;20476;-81
2023/07/12 08:18:23;;;;;;;11.67;5.30;;;;;;;;;;5036635;28;20522;-82
2023/07/12 08:20:52;;;;;;;13.00;5.10;;;;;;;;;;5025553;28;20473;-81
2023/07/12 08:23:19;;;;;;;8.70;4.83;;;;;;;;;;5028112;28;20472;-81
2023/07/12 08:25:46;;;;;;;8.73;4.67;;;;;;;;;;5033188;28;20487;-81
2023/07/12 08:28:13;;;;;;;9.93;6.27;;;;;;;;;;5029495;28;20465;-81
2023/07/12 08:30:40;;;;;;;5.60;4.40;;;;;;;;;;5030033;28;20472;-82
2023/07/12 08:33:07;;;;;;;13.47;5.33;;;;;;;;;;5028431;28;20445;-82
2023/07/12 08:35:33;;;;;;;7.67;5.20;;;;;;;;;;5029338;28;20472;-81
2023/07/12 08:37:59;;;;;;;10.87;6.17;;;;;;;;;;5032606;28;20998;-82
2023/07/12 08:40:27;;;;;;;9.07;5.43;;;;;;;;;;5032209;28;20478;-82
2023/07/12 08:42:53;;;;;;;9.13;5.37;;;;;;;;;;5025270;28;20460;-82
2023/07/12 08:45:22;;;;;;;7.83;4.90;;;;;;;;;;5029861;28;20484;-81
2023/07/12 08:47:51;;;;;;;10.23;4.83;;;;;;;;;;5034727;28;20469;-81
2023/07/12 08:50:18;;;;;;;10.37;5.30;;;;;;;;;;5032041;28;20847;-81
2023/07/12 08:52:45;;;;;;;7.60;5.07;;;;;;;;;;5032935;28;20479;-82
2023/07/12 08:55:14;;;;;;;11.40;6.03;;;;;;;;;;5032171;28;20986;-81
2023/07/12 08:57:41;;;;;;;8.07;5.23;;;;;;;;;;5028868;28;21008;-81
2023/07/12 09:00:10;;;;;;;6.33;5.70;;;;;;;;;;5034372;28;20477;-82
2023/07/12 09:02:36;;;;;;;8.80;5.93;;;;;;;;;;5027943;28;20448;-81
2023/07/12 09:05:12;;;;;;;7.70;4.77;;;;;;;;;;5033154;28;20471;-81
2023/07/12 09:07:38;;;;;;;17.73;5.93;;;;;;;;;;5026618;28;20520;-82
2023/07/12 09:10:05;;;;;;;10.63;5.23;;;;;;;;;;5028652;28;20457;-81
2023/07/12 09:12:34;;;;;;;6.33;4.90;;;;;;;;;;5050957;28;20481;-81
2023/07/12 09:15:02;;;;;;;12.00;5.53;;;;;;;;;;5053880;28;20466;-81
2023/07/12 09:17:29;;;;;;;14.10;5.27;;;;;;;;;;5052987;28;20852;-81
2023/07/12 09:19:56;;;;;;;7.93;4.60;;;;;;;;;;5054008;28;20522;-81
2023/07/12 09:22:23;;;;;;;8.17;5.57;;;;;;;;;;5031867;28;20445;-81
2023/07/12 09:24:52;;;;;;;5.87;4.23;;;;;;;;;;5032118;28;20445;-81
2023/07/12 09:27:19;;;;;;;10.40;4.30;;;;;;;;;;5028876;28;20465;-80
2023/07/12 09:29:45;;;;;;;6.80;4.67;;;;;;;;;;5032666;28;20855;-82
2023/07/12 09:32:16;;;;;;;8.50;5.20;;;;;;;;;;5034492;28;20488;-82
2023/07/12 09:34:43;;;;;;;4.67;4.27;;;;;;;;;;5031522;28;20455;-81
2023/07/12 09:37:13;;;;;;;8.40;4.70;;;;;;;;;;5032623;28;20450;-81
2023/07/12 09:39:41;;;;;;;9.17;4.60;;;;;;;;;;5031230;28;20449;-81
2023/07/12 09:42:11;;;;;;;11.40;4.73;;;;;;;;;;5048199;28;20453;-81
2023/07/12 09:44:37;;;;;;;5.37;4.67;;;;;;;;;;5046195;28;20463;-82
2023/07/12 09:47:07;;;;;;;9.73;5.23;;;;;;;;;;5049853;28;20468;-81
2023/07/12 09:49:37;;;;;;;7.60;4.73;;;;;;;;;;5049507;28;20970;-82
2023/07/12 09:52:08;;;;;;;6.17;5.23;;;;;;;;;;5026735;28;20481;-81
2023/07/12 09:54:41;;;;;;;10.77;4.87;;;;;;;;;;5033462;28;20465;-82
2023/07/12 09:57:11;;;;;;;9.20;4.83;;;;;;;;;;5030021;28;20510;-81
2023/07/12 09:59:41;;;;;;;6.60;4.77;;;;;;;;;;5029747;28;20499;-81
2023/07/12 10:02:22;;;;;;;7.47;4.50;;;;;;;;;;5026485;28;20457;-81
2023/07/12 10:04:50;;;;;;;9.30;5.00;;;;;;;;;;5032060;28;20449;-81
2023/07/12 10:07:19;;;;;;;7.60;4.63;;;;;;;;;;5032131;28;20942;-81
2023/07/12 10:09:47;;;;;;;9.53;4.70;;;;;;;;;;5030830;28;20445;-82
2023/07/12 10:12:19;;;;;;;5.57;4.50;;;;;;;;;;5023910;28;20496;-82
2023/07/12 10:14:47;;;;;;;7.80;5.30;;;;;;;;;;5033916;28;20444;-83
2023/07/12 10:17:17;;;;;;;11.87;5.10;;;;;;;;;;5027037;28;20452;-81
2023/07/12 10:19:54;;;;;;;7.80;5.10;;;;;;;;;;5026568;28;20447;-81
2023/07/12 10:22:23;;;;;;;6.57;4.30;;;;;;;;;;5030265;28;20437;-81
2023/07/12 10:24:50;;;;;;;7.63;4.33;;;;;;;;;;5027472;28;20445;-81
2023/07/12 10:27:20;;;;;;;11.80;5.37;;;;;;;;;;5035462;28;20453;-82
2023/07/12 10:29:49;;;;;;;6.13;4.63;;;;;;;;;;5035363;28;20456;-83
2023/07/12 10:32:20;;;;;;;9.30;4.50;;;;;;;;;;5023805;28;20484;-82
2023/07/12 10:34:48;;;;;;;5.13;4.40;;;;;;;;;;5031683;28;20457;-81
2023/07/12 10:37:18;;;;;;;6.50;4.13;;;;;;;;;;5029307;28;20455;-81
2023/07/12 10:39:46;;;;;;;8.30;4.10;;;;;;;;;;5021728;28;20445;-81
2023/07/12 10:42:15;;;;;;;6.17;4.13;;;;;;;;;;5022714;28;20445;-81
2023/07/12 10:44:46;;;;;;;5.10;4.20;;;;;;;;;;5028719;28;20444;-82
2023/07/12 10:47:15;;;;;;;9.80;5.63;;;;;;;;;;5026753;28;20946;-80
2023/07/12 10:49:43;;;;;;;8.37;3.80;;;;;;;;;;5024792;28;20978;-82
2023/07/12 10:52:20;;;;;;;6.07;3.87;;;;;;;;;;5031707;28;20538;-80
2023/07/12 10:54:57;;;;;;;6.93;5.17;;;;;;;;;;5035060;28;20455;-81
2023/07/12 10:57:27;;;;;;;8.87;4.53;;;;;;;;;;5036304;28;20467;-79
2023/07/12 11:00:02;;;;;;;7.27;4.50;;;;;;;;;;5026464;28;20450;-83
2023/07/12 11:02:29;;;;;;;10.50;4.67;;;;;;;;;;5030765;28;20527;-80
2023/07/12 11:04:56;;;;;;;9.87;4.77;;;;;;;;;;5030253;28;20449;-80
2023/07/12 11:07:31;;;;;;;7.60;4.60;;;;;;;;;;5024649;28;21007;-79
2023/07/12 11:10:07;;;;;;;9.97;4.73;;;;;;;;;;5019359;28;20497;-80
2023/07/12 11:12:36;;;;;;;9.40;5.07;;;;;;;;;;5025454;28;20477;-81
2023/07/12 11:15:16;;;;;;;9.67;5.03;;;;;;;;;;5020732;28;20461;-80
2023/07/12 11:17:51;;;;;;;8.90;5.10;;;;;;;;;;5029197;28;20488;-80
2023/07/12 11:20:21;;;;;;;9.13;5.17;;;;;;;;;;5030117;28;20472;-79
2023/07/12 11:22:51;;;;;;;9.90;5.27;;;;;;;;;;5027515;28;20445;-79
2023/07/12 11:25:23;;;;;;;9.60;5.20;;;;;;;;;;5023589;28;20472;-82
2023/07/12 11:27:55;;;;;;;7.27;4.90;;;;;;;;;;5033778;28;20989;-80
2023/07/12 11:30:26;;;;;;;6.87;4.83;;;;;;;;;;5032092;28;20472;-82
2023/07/12 11:32:56;;;;;;;8.13;4.67;;;;;;;;;;5026013;28;20481;-81
2023/07/12 11:35:25;;;;;;;6.83;5.30;;;;;;;;;;5032363;28;20484;-81
2023/07/12 11:37:55;;;;;;;7.23;5.40;;;;;;;;;;5033813;28;20464;-82
2023/07/12 11:40:23;;;;;;;7.97;7.10;;;;;;;;;;5023037;28;20465;-80
2023/07/12 11:42:50;;;;;;;9.60;5.40;;;;;;;;;;5032314;28;20443;-81
2023/07/12 11:45:17;;;;;;;9.20;5.17;;;;;;;;;;5034880;28;20473;-81
2023/07/12 11:47:46;;;;;;;4.53;3.90;;;;;;;;;;5030338;28;20472;-82
2023/07/12 11:50:17;;;;;;;4.43;2.80;;;;;;;;;;5027858;28;20581;-82
2023/07/12 11:52:43;;;;;;;3.27;2.83;;;;;;;;;;5024178;28;20488;-81
2023/07/12 11:55:15;;;;;;;5.13;3.83;;;;;;;;;;5012934;28;20474;-81
2023/07/12 11:57:41;;;;;;;4.90;3.80;;;;;;;;;;5032659;28;21016;-82
2023/07/12 12:00:15;;;;;;;5.77;4.47;;;;;;;;;;5030074;28;20464;-81
2023/07/12 12:02:41;;;;;;;6.77;4.37;;;;;;;;;;5028750;28;20438;-82
2023/07/12 12:05:20;;;;;;;9.13;5.20;;;;;;;;;;5022134;28;20465;-82
2023/07/12 12:07:47;;;;;;;4.93;4.37;;;;;;;;;;5018289;28;20472;-81
2023/07/12 12:10:19;;;;;;;8.73;5.60;;;;;;;;;;5032948;28;20472;-81
2023/07/12 12:12:47;;;;;;;6.30;5.63;;;;;;;;;;5033922;28;20480;-82
2023/07/12 12:15:20;;;;;;;9.40;5.77;;;;;;;;;;5023481;28;20468;-82
2023/07/12 12:17:46;;;;;;;8.27;5.23;;;;;;;;;;5036804;28;20492;-81
2023/07/12 12:20:14;;;;;;;10.27;5.97;;;;;;;;;;5035018;28;20473;-81
2023/07/12 12:22:43;;;;;;;8.23;6.13;;;;;;;;;;5031402;28;20554;-82
2023/07/12 12:25:16;;;;;;;8.97;5.90;;;;;;;;;;5032683;28;20475;-82
2023/07/12 12:27:43;;;;;;;5.50;4.90;;;;;;;;;;5022756;28;20486;-81
2023/07/12 12:30:18;;;;;;;13.33;4.90;;;;;;;;;;5029467;28;20551;-81
2023/07/12 12:32:55;;;;;;;7.43;4.80;;;;;;;;;;5028629;28;20475;-82
2023/07/12 12:35:21;;;;;;;5.00;4.50;;;;;;;;;;5020858;28;20491;-81
2023/07/12 12:37:55;;;;;;;11.70;5.67;;;;;;;;;;5031954;28;20512;-81
2023/07/12 12:40:22;;;;;;;7.80;5.57;;;;;;;;;;5020396;28;20473;-82
2023/07/12 12:42:53;;;;;;;6.77;4.83;;;;;;;;;;5025298;28;20453;-82
2023/07/12 12:45:19;;;;;;;11.30;5.83;;;;;;;;;;5026549;28;21254;-82
2023/07/12 12:47:47;;;;;;;7.43;4.70;;;;;;;;;;5023310;28;20988;-80
2023/07/12 12:50:19;;;;;;;7.90;5.50;;;;;;;;;;5034497;28;20484;-80
2023/07/12 12:52:45;;;;;;;5.70;4.90;;;;;;;;;;5030844;28;20461;-80
2023/07/12 12:55:13;;;;;;;12.13;4.87;;;;;;;;;;5035494;28;20977;-80
2023/07/12 12:57:40;;;;;;;6.80;5.30;;;;;;;;;;5024180;28;20472;-79
2023/07/12 13:00:11;;;;;;;8.70;5.10;;;;;;;;;;5035957;28;20468;-79
2023/07/12 13:02:38;;;;;;;9.40;5.13;;;;;;;;;;5012835;28;20449;-79
2023/07/12 13:05:04;;;;;;;6.40;4.33;;;;;;;;;;5030887;28;20457;-80
2023/07/12 13:07:33;;;;;;;7.03;5.63;;;;;;;;;;5034597;28;20476;-79
2023/07/12 13:09:59;;;;;;;8.57;5.37;;;;;;;;;;5033637;28;20488;-80
2023/07/12 13:12:28;;;;;;;7.27;5.00;;;;;;;;;;5032387;28;20477;-80
2023/07/12 13:14:54;;;;;;;7.03;5.90;;;;;;;;;;5028137;28;20451;-80
2023/07/12 13:17:22;;;;;;;8.30;5.50;;;;;;;;;;5029654;28;20481;-79
2023/07/12 13:19:49;;;;;;;6.50;5.90;;;;;;;;;;5031782;28;20463;-79
2023/07/12 13:22:16;;;;;;;5.93;5.33;;;;;;;;;;5030471;28;20868;-80
2023/07/12 13:24:43;;;;;;;6.90;5.60;;;;;;;;;;5022556;28;20531;-81
2023/07/12 13:27:20;;;;;;;6.17;5.50;;;;;;;;;;5035697;28;20443;-80
2023/07/12 13:29:48;;;;;;;14.60;5.93;;;;;;;;;;5034477;28;20444;-80
2023/07/12 13:32:15;;;;;;;14.07;5.93;;;;;;;;;;5032652;28;20492;-80
2023/07/12 13:34:41;;;;;;;9.83;5.97;;;;;;;;;;5035159;28;20479;-80
2023/07/12 13:37:11;;;;;;;11.63;5.50;;;;;;;;;;5031441;28;20449;-79
2023/07/12 13:39:38;;;;;;;8.80;5.70;;;;;;;;;;5023747;28;20954;-80
2023/07/12 13:42:05;;;;;;;6.80;4.67;;;;;;;;;;5030080;28;20472;-81
2023/07/12 13:44:32;;;;;;;5.87;4.87;;;;;;;;;;5030906;28;20945;-82
2023/07/12 13:47:00;;;;;;;6.07;3.90;;;;;;;;;;5035102;28;20852;-82
2023/07/12 13:49:27;;;;;;;6.63;3.73;;;;;;;;;;5024264;28;20441;-82
2023/07/12 13:51:54;;;;;;;6.33;4.30;;;;;;;;;;5031120;28;20528;-79
2023/07/12 13:54:20;;;;;;;5.77;3.77;;;;;;;;;;5033290;28;20484;-79
2023/07/12 13:56:47;;;;;;;5.27;3.27;;;;;;;;;;5024343;28;20480;-80
2023/07/12 13:59:13;;;;;;;4.40;3.10;;;;;;;;;;5035716;28;20468;-80
2023/07/12 14:01:40;;;;;;;7.03;3.40;;;;;;;;;;5033769;28;20475;-79
2023/07/12 14:04:12;;;;;;;6.67;2.90;;;;;;;;;;5033744;28;20510;-79
2023/07/12 14:06:39;;;;;;;5.57;2.83;;;;;;;;;;5026599;28;20472;-80
2023/07/12 14:09:06;;;;;;;6.80;3.00;;;;;;;;;;5030838;28;20534;-79
2023/07/12 14:11:33;;;;;;;3.90;2.60;;;;;;;;;;5034181;28;20469;-80
2023/07/12 14:13:59;;;;;;;5.80;2.97;;;;;;;;;;5036081;28;20488;-80
2023/07/12 14:16:27;;;;;;;4.10;3.53;;;;;;;;;;5031715;28;20483;-80
2023/07/12 14:18:53;;;;;;;7.10;2.80;;;;;;;;;;5030690;28;20852;-79
2023/07/12 14:21:22;;;;;;;3.90;3.00;;;;;;;;;;5029579;28;20472;-79
2023/07/12 14:23:51;;;;;;;5.10;3.07;;;;;;;;;;5033382;28;20464;-79
2023/07/12 14:26:18;;;;;;;6.07;3.30;;;;;;;;;;5031604;28;20509;-79
2023/07/12 14:28:47;;;;;;;4.20;3.17;;;;;;;;;;5019959;28;20489;-79
2023/07/12 14:31:15;;;;;;;8.77;3.70;;;;;;;;;;5027359;28;20475;-80
2023/07/12 14:33:41;;;;;;;6.03;4.20;;;;;;;;;;5033874;28;20868;-80
2023/07/12 14:36:08;;;;;;;5.83;3.53;;;;;;;;;;5029440;28;21003;-80
2023/07/12 14:38:35;;;;;;;4.93;2.93;;;;;;;;;;5030125;28;20472;-80
2023/07/12 14:41:03;;;;;;;6.00;2.17;;;;;;;;;;5034447;28;20479;-79
2023/07/12 14:43:29;;;;;;;6.20;1.80;;;;;;;;;;5030505;28;20510;-80